Terminal Aerodrome Forecast
Issued by NWS

Home | Current Version | Previous Version | Text Only | Print | Product List | Glossary On
Versions: 1 2 3 4 5 6 7 8 9 10 11 12 13 14 15 16 17 18 19 20 21 22 23 24 25 26 27 28 29 30 31 32 33 34 35 36
000
FTUS43 KGLD 241129
TAFMCK
TAF
KMCK 241129Z 2412/2512 06009KT P6SM BKN100
     FM241600 11008KT P6SM BKN050
     FM241800 12009KT P6SM VCTS BKN060CB
     FM250000 12011KT P6SM VCSH SCT150
     FM250500 13010KT P6SM VCSH BKN080
     FM250900 10006KT P6SM VCSH BKN045
     FM251000 06005KT P6SM VCSH BKN025
     FM251100 35005KT P6SM VCSH SCT015=

USA.gov is the U.S. government's official web portal to all federal, state and local government web resources and services.